Thunder radar more information blitzortung!


Radar de pluja more information rain snow radar


Visita la nostra xarxa de llocs de meteo:

Template documentation
and downloads

And another site



No particular awareness of the weather is required.    There are no Weather-warnings

Pagina Historial Weather Underground text

Diari Resum Setembre 7, 2017 Unitats:  Tant    Imperial   Mètric
« Previous Dia
SegĂźent Dia »
Diari Setmana Mensual Anual Personalitzada
  Maxima: Minima: Media:
Temperatura: 84 °F /  28.9 °C 61 °F /  16.1 °C 74.3 °F /  23.5 °C
Punt de rosada: 65.8 °F /  18.8 °C 47.8 °F /  8.8 °C 54.9 °F /  12.7 °C
Humitat: 78 % 37 % 52 %
Wind Speed: 10.4 mph /  16.7 km/h - 3.6 mph /  5.8 km/h
RĂ fegues de vent: 10.4 mph /  16.7 km/h - -
Vent:- - SSW
Pression baro: 30.1 in /  1017.8 hPa 29.9 in /  1013.8 hPa -
Precipitacions: 0 in /  0.0 mm    
Historical Graphs
 
 
Dades de taula per Setembre 7, 2017
Temps Temperatura Punt de rosada Pression baro Vent Wind Speed RĂ fegues de vent Humitat Rainfall Rate (Hourly)
00:04 73 °F /  22.8 °C 65.8 °F /  18.8 °C 30.1 in /  1017.8 hPa Calm     78 % 0 in /  0.0 mm
00:05 66.2 °F /  19.0 °C 52 °F /  11.1 °C 30 in /  1015.8 hPa West 2 mph /  3.2 km/h 3 mph /  4.8 km/h 60 % 0 in /  0.0 mm
00:15 65.7 °F /  18.7 °C 51.4 °F /  10.8 °C 30 in /  1015.8 hPa WNW 2 mph /  3.2 km/h 4 mph /  6.4 km/h 60 % 0 in /  0.0 mm
00:25 65.3 °F /  18.5 °C 50.5 °F /  10.3 °C 30 in /  1015.8 hPa WNW 1 mph /  1.6 km/h 5 mph /  8.0 km/h 59 % 0 in /  0.0 mm
00:35 64.9 °F /  18.3 °C 50.4 °F /  10.2 °C 30 in /  1015.8 hPa NW 1 mph /  1.6 km/h 3 mph /  4.8 km/h 59 % 0 in /  0.0 mm
00:45 64.8 °F /  18.2 °C 50.2 °F /  10.1 °C 30 in /  1016.8 hPa NNW 2 mph /  3.2 km/h 2 mph /  3.2 km/h 59 % 0 in /  0.0 mm
00:55 64.4 °F /  18.0 °C 49.8 °F /  9.9 °C 30 in /  1016.8 hPa West 2 mph /  3.2 km/h 3 mph /  4.8 km/h 59 % 0 in /  0.0 mm
01:05 64.2 °F /  17.9 °C 49.6 °F /  9.8 °C 30 in /  1016.8 hPa West 2 mph /  3.2 km/h 3 mph /  4.8 km/h 59 % 0 in /  0.0 mm
01:15 63.7 °F /  17.6 °C 49.1 °F /  9.5 °C 30 in /  1016.8 hPa WNW 2 mph /  3.2 km/h 3 mph /  4.8 km/h 59 % 0 in /  0.0 mm
01:25 63.3 °F /  17.4 °C 48.7 °F /  9.3 °C 30 in /  1015.8 hPa West 2 mph /  3.2 km/h 4 mph /  6.4 km/h 59 % 0 in /  0.0 mm
01:35 63 °F /  17.2 °C 48.4 °F /  9.1 °C 30 in /  1015.8 hPa West 3 mph /  4.8 km/h 3 mph /  4.8 km/h 59 % 0 in /  0.0 mm
01:45 62.8 °F /  17.1 °C 48.2 °F /  9.0 °C 30 in /  1016.8 hPa WSW 1 mph /  1.6 km/h 4 mph /  6.4 km/h 59 % 0 in /  0.0 mm
01:55 62.2 °F /  16.8 °C 48.6 °F /  9.2 °C 30 in /  1016.8 hPa WSW 1 mph /  1.6 km/h 2 mph /  3.2 km/h 61 % 0 in /  0.0 mm
02:05 61.9 °F /  16.6 °C 48.4 °F /  9.1 °C 30 in /  1016.8 hPa WSW 1 mph /  1.6 km/h 4 mph /  6.4 km/h 61 % 0 in /  0.0 mm
02:15 61.7 °F /  16.5 °C 48 °F /  8.9 °C 30 in /  1016.8 hPa SW 1 mph /  1.6 km/h 2 mph /  3.2 km/h 61 % 0 in /  0.0 mm
02:25 61.3 °F /  16.3 °C 47.8 °F /  8.8 °C 30 in /  1015.8 hPa South 1 mph /  1.6 km/h 2 mph /  3.2 km/h 61 % 0 in /  0.0 mm
02:35 61.2 °F /  16.2 °C 48 °F /  8.9 °C 30 in /  1015.8 hPa SSW 2 mph /  3.2 km/h 3 mph /  4.8 km/h 62 % 0 in /  0.0 mm
02:45 61 °F /  16.1 °C 47.8 °F /  8.8 °C 30 in /  1016.8 hPa Calm   2 mph /  3.2 km/h 62 % 0 in /  0.0 mm
02:55 61 °F /  16.1 °C 47.8 °F /  8.8 °C 30 in /  1016.8 hPa Calm   2 mph /  3.2 km/h 62 % 0 in /  0.0 mm
03:05 61.2 °F /  16.2 °C 48.6 °F /  9.2 °C 30 in /  1016.8 hPa Calm   3 mph /  4.8 km/h 63 % 0 in /  0.0 mm
03:15 61.3 °F /  16.3 °C 48.6 °F /  9.2 °C 30 in /  1016.8 hPa SW 1 mph /  1.6 km/h 2 mph /  3.2 km/h 63 % 0 in /  0.0 mm
03:25 61.5 °F /  16.4 °C 48.7 °F /  9.3 °C 30.1 in /  1017.8 hPa SW 1 mph /  1.6 km/h 2 mph /  3.2 km/h 63 % 0 in /  0.0 mm
03:35 61.9 °F /  16.6 °C 49.1 °F /  9.5 °C 30.1 in /  1017.8 hPa SW 2 mph /  3.2 km/h 4 mph /  6.4 km/h 63 % 0 in /  0.0 mm
03:45 62.8 °F /  17.1 °C 49.6 °F /  9.8 °C 30.1 in /  1017.8 hPa SW 2 mph /  3.2 km/h 4 mph /  6.4 km/h 62 % 0 in /  0.0 mm
03:55 63.9 °F /  17.7 °C 50.5 °F /  10.3 °C 30.1 in /  1017.8 hPa Calm   4 mph /  6.4 km/h 62 % 0 in /  0.0 mm
04:05 64.4 °F /  18.0 °C 50.7 °F /  10.4 °C 30.1 in /  1017.8 hPa WSW 2 mph /  3.2 km/h 3 mph /  4.8 km/h 61 % 0 in /  0.0 mm
04:15 65.8 °F /  18.8 °C 51.6 °F /  10.9 °C 30 in /  1016.8 hPa SW 2 mph /  3.2 km/h 2 mph /  3.2 km/h 60 % 0 in /  0.0 mm
04:25 65.8 °F /  18.8 °C 51.1 °F /  10.6 °C 30.1 in /  1017.8 hPa NNE 3 mph /  4.8 km/h 3 mph /  4.8 km/h 59 % 0 in /  0.0 mm
04:35 65.7 °F /  18.7 °C 50.5 °F /  10.3 °C 30.1 in /  1017.8 hPa NE 2 mph /  3.2 km/h 3 mph /  4.8 km/h 58 % 0 in /  0.0 mm
04:45 66.2 °F /  19.0 °C 50 °F /  10.0 °C 30.1 in /  1017.8 hPa NE 3 mph /  4.8 km/h 4 mph /  6.4 km/h 56 % 0 in /  0.0 mm
04:55 67.3 °F /  19.6 °C 51.1 °F /  10.6 °C 30.1 in /  1017.8 hPa NE 1 mph /  1.6 km/h 3 mph /  4.8 km/h 56 % 0 in /  0.0 mm
05:05 68.7 °F /  20.4 °C 52.3 °F /  11.3 °C 30.1 in /  1017.8 hPa SW 1 mph /  1.6 km/h 1 mph /  1.6 km/h 56 % 0 in /  0.0 mm
05:15 68.9 °F /  20.5 °C 52.2 °F /  11.2 °C 30.1 in /  1017.8 hPa NNW 1 mph /  1.6 km/h 3 mph /  4.8 km/h 55 % 0 in /  0.0 mm
05:25 69.3 °F /  20.7 °C 52 °F /  11.1 °C 30 in /  1016.8 hPa East 1 mph /  1.6 km/h 2 mph /  3.2 km/h 54 % 0 in /  0.0 mm
05:35 70.5 °F /  21.4 °C 53.1 °F /  11.7 °C 30 in /  1016.8 hPa NNE 2 mph /  3.2 km/h 2 mph /  3.2 km/h 54 % 0 in /  0.0 mm
05:45 69.8 °F /  21.0 °C 51.4 °F /  10.8 °C 30.1 in /  1017.8 hPa NW 1 mph /  1.6 km/h 2 mph /  3.2 km/h 52 % 0 in /  0.0 mm
05:55 71.4 °F /  21.9 °C 53.4 °F /  11.9 °C 30.1 in /  1017.8 hPa South 1 mph /  1.6 km/h 3 mph /  4.8 km/h 53 % 0 in /  0.0 mm
06:05 71.6 °F /  22.0 °C 53.6 °F /  12.0 °C 30.1 in /  1017.8 hPa WNW 2 mph /  3.2 km/h 3 mph /  4.8 km/h 53 % 0 in /  0.0 mm
11:05 72 °F /  22.2 °C 53.4 °F /  11.9 °C 30.1 in /  1017.8 hPa North 2.4 mph /  3.9 km/h 2.4 mph /  3.9 km/h 52 % 0 in /  0.0 mm
11:10 72.9 °F /  22.7 °C 53.8 °F /  12.1 °C 30.1 in /  1017.8 hPa ESE 2.9 mph /  4.7 km/h 2.9 mph /  4.7 km/h 51 % 0 in /  0.0 mm
11:15 72.5 °F /  22.5 °C 53.2 °F /  11.8 °C 30.1 in /  1017.8 hPa NE 4.6 mph /  7.4 km/h 4.6 mph /  7.4 km/h 51 % 0 in /  0.0 mm
11:20 72.9 °F /  22.7 °C 53.8 °F /  12.1 °C 30.1 in /  1017.8 hPa NW 2.3 mph /  3.7 km/h 2.3 mph /  3.7 km/h 51 % 0 in /  0.0 mm
11:25 73.2 °F /  22.9 °C 54 °F /  12.2 °C 30.1 in /  1017.8 hPa West 2.3 mph /  3.7 km/h 2.3 mph /  3.7 km/h 51 % 0 in /  0.0 mm
11:30 73.9 °F /  23.3 °C 54.1 °F /  12.3 °C 30.1 in /  1017.8 hPa East 4.6 mph /  7.4 km/h 4.6 mph /  7.4 km/h 50 % 0 in /  0.0 mm
11:35 74.5 °F /  23.6 °C 54.1 °F /  12.3 °C 30.1 in /  1017.8 hPa NNE 3.5 mph /  5.6 km/h 3.5 mph /  5.6 km/h 49 % 0 in /  0.0 mm
11:40 75.4 °F /  24.1 °C 54.9 °F /  12.7 °C 30.1 in /  1017.8 hPa NW 2.3 mph /  3.7 km/h 2.3 mph /  3.7 km/h 49 % 0 in /  0.0 mm
11:45 76.1 °F /  24.5 °C 55.6 °F /  13.1 °C 30.1 in /  1017.8 hPa SW 3.8 mph /  6.1 km/h 3.8 mph /  6.1 km/h 49 % 0 in /  0.0 mm
11:50 75.7 °F /  24.3 °C 55.2 °F /  12.9 °C 30.1 in /  1017.8 hPa ENE 2.3 mph /  3.7 km/h 2.3 mph /  3.7 km/h 49 % 0 in /  0.0 mm
11:55 75.6 °F /  24.2 °C 55 °F /  12.8 °C 30.1 in /  1017.8 hPa WSW 2.4 mph /  3.9 km/h 2.4 mph /  3.9 km/h 49 % 0 in /  0.0 mm
12:00 75.4 °F /  24.1 °C 54.3 °F /  12.4 °C 30.1 in /  1017.8 hPa NE 2.6 mph /  4.2 km/h 2.6 mph /  4.2 km/h 48 % 0 in /  0.0 mm
12:05 75.4 °F /  24.1 °C 54.9 °F /  12.7 °C 30.1 in /  1017.8 hPa SW 2.3 mph /  3.7 km/h 2.3 mph /  3.7 km/h 49 % 0 in /  0.0 mm
12:10 75.9 °F /  24.4 °C 54.1 °F /  12.3 °C 30.1 in /  1017.8 hPa East 2.3 mph /  3.7 km/h 2.3 mph /  3.7 km/h 47 % 0 in /  0.0 mm
12:15 76.5 °F /  24.7 °C 55.9 °F /  13.3 °C 30.1 in /  1017.8 hPa WSW 5.8 mph /  9.3 km/h 5.8 mph /  9.3 km/h 49 % 0 in /  0.0 mm
12:20 77 °F /  25.0 °C 55.2 °F /  12.9 °C 30.1 in /  1017.8 hPa West 4.7 mph /  7.6 km/h 4.7 mph /  7.6 km/h 47 % 0 in /  0.0 mm
12:25 77 °F /  25.0 °C 55.2 °F /  12.9 °C 30 in /  1016.8 hPa SW 4.9 mph /  7.9 km/h 4.9 mph /  7.9 km/h 47 % 0 in /  0.0 mm
12:30 77 °F /  25.0 °C 55.2 °F /  12.9 °C 30 in /  1016.8 hPa WSW 4.6 mph /  7.4 km/h 4.7 mph /  7.6 km/h 47 % 0 in /  0.0 mm
12:35 77.2 °F /  25.1 °C 54.9 °F /  12.7 °C 30 in /  1016.8 hPa South 2.3 mph /  3.7 km/h 2.4 mph /  3.9 km/h 46 % 0 in /  0.0 mm
12:40 77.9 °F /  25.5 °C 55.6 °F /  13.1 °C 30 in /  1015.8 hPa WSW 4.6 mph /  7.4 km/h 4.6 mph /  7.4 km/h 46 % 0 in /  0.0 mm
12:45 78.4 °F /  25.8 °C 55.9 °F /  13.3 °C 30 in /  1015.8 hPa WSW 5.8 mph /  9.3 km/h 5.8 mph /  9.3 km/h 46 % 0 in /  0.0 mm
12:50 77.7 °F /  25.4 °C 54.7 °F /  12.6 °C 30 in /  1015.8 hPa West 6.9 mph /  11.1 km/h 6.9 mph /  11.1 km/h 45 % 0 in /  0.0 mm
12:55 78.1 °F /  25.6 °C 54.3 °F /  12.4 °C 30 in /  1015.8 hPa WSW 5.8 mph /  9.3 km/h 5.8 mph /  9.3 km/h 44 % 0 in /  0.0 mm
13:00 79 °F /  26.1 °C 55.2 °F /  12.9 °C 30 in /  1015.8 hPa West 3.6 mph /  5.8 km/h 3.6 mph /  5.8 km/h 44 % 0 in /  0.0 mm
13:05 79 °F /  26.1 °C 54.7 °F /  12.6 °C 30 in /  1015.8 hPa South 8.1 mph /  13.0 km/h 8.1 mph /  13.0 km/h 43 % 0 in /  0.0 mm
13:10 78.6 °F /  25.9 °C 54.1 °F /  12.3 °C 30 in /  1015.8 hPa SW 5.8 mph /  9.3 km/h 5.8 mph /  9.3 km/h 43 % 0 in /  0.0 mm
13:15 79 °F /  26.1 °C 54 °F /  12.2 °C 30 in /  1015.8 hPa South 3.5 mph /  5.6 km/h 3.5 mph /  5.6 km/h 42 % 0 in /  0.0 mm
13:20 79.9 °F /  26.6 °C 54.7 °F /  12.6 °C 30 in /  1015.8 hPa SW 4.6 mph /  7.4 km/h 4.6 mph /  7.4 km/h 42 % 0 in /  0.0 mm
13:25 80.1 °F /  26.7 °C 54.9 °F /  12.7 °C 30 in /  1015.8 hPa WNW 5.9 mph /  9.5 km/h 5.9 mph /  9.5 km/h 42 % 0 in /  0.0 mm
13:30 79.5 °F /  26.4 °C 54.3 °F /  12.4 °C 30 in /  1015.8 hPa SW 4 mph /  6.4 km/h 4 mph /  6.4 km/h 42 % 0 in /  0.0 mm
13:35 79.7 °F /  26.5 °C 54 °F /  12.2 °C 30 in /  1015.8 hPa WSW 5.8 mph /  9.3 km/h 5.8 mph /  9.3 km/h 41 % 0 in /  0.0 mm
13:40 78.4 °F /  25.8 °C 52.2 °F /  11.2 °C 30 in /  1015.8 hPa East 8.1 mph /  13.0 km/h 8.1 mph /  13.0 km/h 40 % 0 in /  0.0 mm
13:45 79 °F /  26.1 °C 53.2 °F /  11.8 °C 30 in /  1015.8 hPa North 5.8 mph /  9.3 km/h 5.8 mph /  9.3 km/h 41 % 0 in /  0.0 mm
13:50 79.2 °F /  26.2 °C 53.4 °F /  11.9 °C 30 in /  1015.8 hPa West 5.9 mph /  9.5 km/h 5.9 mph /  9.5 km/h 41 % 0 in /  0.0 mm
13:55 79.3 °F /  26.3 °C 53.6 °F /  12.0 °C 30 in /  1015.8 hPa NW 5.8 mph /  9.3 km/h 5.8 mph /  9.3 km/h 41 % 0 in /  0.0 mm
14:00 79.5 °F /  26.4 °C 53.8 °F /  12.1 °C 30 in /  1015.8 hPa WSW 4 mph /  6.4 km/h 4 mph /  6.4 km/h 41 % 0 in /  0.0 mm
14:05 80.2 °F /  26.8 °C 54.3 °F /  12.4 °C 30 in /  1015.8 hPa WNW 3.8 mph /  6.1 km/h 3.8 mph /  6.1 km/h 41 % 0 in /  0.0 mm
14:10 80.8 °F /  27.1 °C 53.4 °F /  11.9 °C 30 in /  1015.8 hPa SSE 2.3 mph /  3.7 km/h 2.3 mph /  3.7 km/h 39 % 0 in /  0.0 mm
14:15 81.5 °F /  27.5 °C 54.1 °F /  12.3 °C 30 in /  1015.8 hPa SW 6.9 mph /  11.1 km/h 6.9 mph /  11.1 km/h 39 % 0 in /  0.0 mm
14:20 81.3 °F /  27.4 °C 54.7 °F /  12.6 °C 30 in /  1015.8 hPa SW 2.3 mph /  3.7 km/h 2.4 mph /  3.9 km/h 40 % 0 in /  0.0 mm
14:25 81.3 °F /  27.4 °C 53.2 °F /  11.8 °C 30 in /  1014.8 hPa West 4.6 mph /  7.4 km/h 4.6 mph /  7.4 km/h 38 % 0 in /  0.0 mm
14:30 81.3 °F /  27.4 °C 54 °F /  12.2 °C 30 in /  1014.8 hPa WNW 4.6 mph /  7.4 km/h 4.6 mph /  7.4 km/h 39 % 0 in /  0.0 mm
14:35 80.8 °F /  27.1 °C 53.4 °F /  11.9 °C 30 in /  1014.8 hPa East 2.6 mph /  4.2 km/h 2.6 mph /  4.2 km/h 39 % 0 in /  0.0 mm
14:40 81.5 °F /  27.5 °C 53.4 °F /  11.9 °C 30 in /  1014.8 hPa ESE 4.6 mph /  7.4 km/h 4.6 mph /  7.4 km/h 38 % 0 in /  0.0 mm
14:45 82 °F /  27.8 °C 53.2 °F /  11.8 °C 30 in /  1014.8 hPa SW 2.3 mph /  3.7 km/h 2.3 mph /  3.7 km/h 37 % 0 in /  0.0 mm
14:50 82.4 °F /  28.0 °C 54.1 °F /  12.3 °C 30 in /  1014.8 hPa SW 3.5 mph /  5.6 km/h 3.5 mph /  5.6 km/h 38 % 0 in /  0.0 mm
14:55 83.5 °F /  28.6 °C 55.9 °F /  13.3 °C 30 in /  1014.8 hPa SW 6.9 mph /  11.1 km/h 6.9 mph /  11.1 km/h 39 % 0 in /  0.0 mm
15:00 82.6 °F /  28.1 °C 54.3 °F /  12.4 °C 30 in /  1014.8 hPa SSW 5.8 mph /  9.3 km/h 5.8 mph /  9.3 km/h 38 % 0 in /  0.0 mm
15:05 82.6 °F /  28.1 °C 55 °F /  12.8 °C 30 in /  1014.8 hPa NNE 4.6 mph /  7.4 km/h 4.6 mph /  7.4 km/h 39 % 0 in /  0.0 mm
15:10 81.9 °F /  27.7 °C 54.5 °F /  12.5 °C 30 in /  1014.8 hPa SW 2.9 mph /  4.7 km/h 2.9 mph /  4.7 km/h 39 % 0 in /  0.0 mm
15:15 82.9 °F /  28.3 °C 55.4 °F /  13.0 °C 30 in /  1014.8 hPa SW 3.5 mph /  5.6 km/h 3.5 mph /  5.6 km/h 39 % 0 in /  0.0 mm
15:20 84 °F /  28.9 °C 56.5 °F /  13.6 °C 30 in /  1014.8 hPa NW 2.3 mph /  3.7 km/h 2.3 mph /  3.7 km/h 39 % 0 in /  0.0 mm
15:25 82.8 °F /  28.2 °C 55.9 °F /  13.3 °C 29.9 in /  1013.8 hPa ESE 4.6 mph /  7.4 km/h 4.6 mph /  7.4 km/h 40 % 0 in /  0.0 mm
15:30 83.1 °F /  28.4 °C 56.3 °F /  13.5 °C 29.9 in /  1013.8 hPa SE 3.1 mph /  5.0 km/h 3.3 mph /  5.3 km/h 40 % 0 in /  0.0 mm
15:35 82.9 °F /  28.3 °C 56.8 °F /  13.8 °C 29.9 in /  1013.8 hPa SSW 5.8 mph /  9.3 km/h 5.8 mph /  9.3 km/h 41 % 0 in /  0.0 mm
15:40 83.3 °F /  28.5 °C 56.5 °F /  13.6 °C 29.9 in /  1013.8 hPa SW 4.6 mph /  7.4 km/h 4.6 mph /  7.4 km/h 40 % 0 in /  0.0 mm
15:45 83.8 °F /  28.8 °C 56.8 °F /  13.8 °C 29.9 in /  1013.8 hPa SSW 4.6 mph /  7.4 km/h 4.6 mph /  7.4 km/h 40 % 0 in /  0.0 mm
15:50 83.7 °F /  28.7 °C 56.8 °F /  13.8 °C 29.9 in /  1013.8 hPa West 5.8 mph /  9.3 km/h 5.8 mph /  9.3 km/h 40 % 0 in /  0.0 mm
15:55 84 °F /  28.9 °C 57 °F /  13.9 °C 29.9 in /  1013.8 hPa SSW 6.9 mph /  11.1 km/h 6.9 mph /  11.1 km/h 40 % 0 in /  0.0 mm
16:00 83.5 °F /  28.6 °C 56.7 °F /  13.7 °C 29.9 in /  1013.8 hPa SSW 7.8 mph /  12.6 km/h 7.8 mph /  12.6 km/h 40 % 0 in /  0.0 mm
16:05 83.8 °F /  28.8 °C 56.8 °F /  13.8 °C 29.9 in /  1013.8 hPa SW 8.1 mph /  13.0 km/h 8.1 mph /  13.0 km/h 40 % 0 in /  0.0 mm
16:10 82.8 °F /  28.2 °C 55.9 °F /  13.3 °C 29.9 in /  1013.8 hPa WSW 10.4 mph /  16.7 km/h 10.4 mph /  16.7 km/h 40 % 0 in /  0.0 mm
16:15 82 °F /  27.8 °C 55.2 °F /  12.9 °C 29.9 in /  1013.8 hPa SSW 9.2 mph /  14.8 km/h 9.2 mph /  14.8 km/h 40 % 0 in /  0.0 mm
16:20 82.2 °F /  27.9 °C 56.1 °F /  13.4 °C 29.9 in /  1013.8 hPa West 9 mph /  14.5 km/h 9 mph /  14.5 km/h 41 % 0 in /  0.0 mm
16:25 81.3 °F /  27.4 °C 55.4 °F /  13.0 °C 29.9 in /  1013.8 hPa SW 10.4 mph /  16.7 km/h 10.4 mph /  16.7 km/h 41 % 0 in /  0.0 mm
16:30 81.5 °F /  27.5 °C 56.1 °F /  13.4 °C 29.9 in /  1013.8 hPa SW 5.8 mph /  9.3 km/h 5.8 mph /  9.3 km/h 42 % 0 in /  0.0 mm
16:35 81.3 °F /  27.4 °C 55.9 °F /  13.3 °C 29.9 in /  1013.8 hPa SW 5.6 mph /  9.0 km/h 5.6 mph /  9.0 km/h 42 % 0 in /  0.0 mm
16:40 81.3 °F /  27.4 °C 55.9 °F /  13.3 °C 29.9 in /  1013.8 hPa SW 5.8 mph /  9.3 km/h 5.8 mph /  9.3 km/h 42 % 0 in /  0.0 mm
16:45 82.2 °F /  27.9 °C 56.8 °F /  13.8 °C 29.9 in /  1013.8 hPa WSW 5.8 mph /  9.3 km/h 5.8 mph /  9.3 km/h 42 % 0 in /  0.0 mm
16:50 82.4 °F /  28.0 °C 57.7 °F /  14.3 °C 29.9 in /  1013.8 hPa SW 6 mph /  9.7 km/h 6 mph /  9.7 km/h 43 % 0 in /  0.0 mm
16:55 82.2 °F /  27.9 °C 57.6 °F /  14.2 °C 29.9 in /  1013.8 hPa SW 4.9 mph /  7.9 km/h 4.9 mph /  7.9 km/h 43 % 0 in /  0.0 mm
17:00 82.6 °F /  28.1 °C 57.7 °F /  14.3 °C 29.9 in /  1013.8 hPa SW 4.6 mph /  7.4 km/h 4.6 mph /  7.4 km/h 43 % 0 in /  0.0 mm
17:05 82.4 °F /  28.0 °C 57.7 °F /  14.3 °C 29.9 in /  1013.8 hPa SSE 6.9 mph /  11.1 km/h 6.9 mph /  11.1 km/h 43 % 0 in /  0.0 mm
17:10 81.5 °F /  27.5 °C 56.8 °F /  13.8 °C 29.9 in /  1013.8 hPa WSW 9.2 mph /  14.8 km/h 9.2 mph /  14.8 km/h 43 % 0 in /  0.0 mm
17:15 81 °F /  27.2 °C 56.5 °F /  13.6 °C 29.9 in /  1013.8 hPa SW 6.9 mph /  11.1 km/h 6.9 mph /  11.1 km/h 43 % 0 in /  0.0 mm
17:20 81.1 °F /  27.3 °C 57.2 °F /  14.0 °C 29.9 in /  1013.8 hPa SW 6.9 mph /  11.1 km/h 6.9 mph /  11.1 km/h 44 % 0 in /  0.0 mm
17:25 81.5 °F /  27.5 °C 57.6 °F /  14.2 °C 29.9 in /  1013.8 hPa South 4.6 mph /  7.4 km/h 4.6 mph /  7.4 km/h 44 % 0 in /  0.0 mm
17:30 81.3 °F /  27.4 °C 57.4 °F /  14.1 °C 29.9 in /  1013.8 hPa WNW 6.9 mph /  11.1 km/h 6.9 mph /  11.1 km/h 44 % 0 in /  0.0 mm
17:35 81.7 °F /  27.6 °C 57.6 °F /  14.2 °C 29.9 in /  1013.8 hPa WSW 5.4 mph /  8.7 km/h 5.4 mph /  8.7 km/h 44 % 0 in /  0.0 mm
17:40 81.5 °F /  27.5 °C 57.6 °F /  14.2 °C 29.9 in /  1013.8 hPa WSW 5.9 mph /  9.5 km/h 5.9 mph /  9.5 km/h 44 % 0 in /  0.0 mm
17:45 81.1 °F /  27.3 °C 57.2 °F /  14.0 °C 29.9 in /  1013.8 hPa WSW 4.6 mph /  7.4 km/h 4.6 mph /  7.4 km/h 44 % 0 in /  0.0 mm
17:50 81.5 °F /  27.5 °C 57.6 °F /  14.2 °C 29.9 in /  1013.8 hPa ESE 3.5 mph /  5.6 km/h 3.5 mph /  5.6 km/h 44 % 0 in /  0.0 mm
17:55 81 °F /  27.2 °C 57.6 °F /  14.2 °C 29.9 in /  1013.8 hPa SW 5.8 mph /  9.3 km/h 5.8 mph /  9.3 km/h 45 % 0 in /  0.0 mm
18:00 80.2 °F /  26.8 °C 57.6 °F /  14.2 °C 29.9 in /  1013.8 hPa WSW 5.8 mph /  9.3 km/h 5.8 mph /  9.3 km/h 46 % 0 in /  0.0 mm
18:05 80.2 °F /  26.8 °C 57.6 °F /  14.2 °C 29.9 in /  1013.8 hPa SW 5.8 mph /  9.3 km/h 5.8 mph /  9.3 km/h 46 % 0 in /  0.0 mm
18:10 80.8 °F /  27.1 °C 57.6 °F /  14.2 °C 29.9 in /  1013.8 hPa South 7.8 mph /  12.6 km/h 7.8 mph /  12.6 km/h 45 % 0 in /  0.0 mm
18:15 80.8 °F /  27.1 °C 58.1 °F /  14.5 °C 29.9 in /  1013.8 hPa South 2.9 mph /  4.7 km/h 2.9 mph /  4.7 km/h 46 % 0 in /  0.0 mm
18:20 80.4 °F /  26.9 °C 58.3 °F /  14.6 °C 29.9 in /  1013.8 hPa SSW 5.8 mph /  9.3 km/h 5.8 mph /  9.3 km/h 47 % 0 in /  0.0 mm
18:25 79.7 °F /  26.5 °C 57.7 °F /  14.3 °C 29.9 in /  1013.8 hPa South 6.9 mph /  11.1 km/h 6.9 mph /  11.1 km/h 47 % 0 in /  0.0 mm
18:30 79.3 °F /  26.3 °C 57.4 °F /  14.1 °C 29.9 in /  1013.8 hPa South 4.6 mph /  7.4 km/h 4.6 mph /  7.4 km/h 47 % 0 in /  0.0 mm
18:35 79.3 °F /  26.3 °C 57.9 °F /  14.4 °C 29.9 in /  1013.8 hPa WNW 4.6 mph /  7.4 km/h 4.6 mph /  7.4 km/h 48 % 0 in /  0.0 mm
18:40 78.8 °F /  26.0 °C 57.4 °F /  14.1 °C 29.9 in /  1013.8 hPa WSW 2.3 mph /  3.7 km/h 2.4 mph /  3.9 km/h 48 % 0 in /  0.0 mm
18:45 78.4 °F /  25.8 °C 57.7 °F /  14.3 °C 29.9 in /  1013.8 hPa NE 2.2 mph /  3.5 km/h 2.2 mph /  3.5 km/h 49 % 0 in /  0.0 mm
18:50 77.7 °F /  25.4 °C 57 °F /  13.9 °C 29.9 in /  1013.8 hPa WSW 2.4 mph /  3.9 km/h 2.4 mph /  3.9 km/h 49 % 0 in /  0.0 mm
18:55 77.9 °F /  25.5 °C 57.7 °F /  14.3 °C 29.9 in /  1013.8 hPa SW 4.6 mph /  7.4 km/h 4.6 mph /  7.4 km/h 50 % 0 in /  0.0 mm
19:00 77.9 °F /  25.5 °C 57.7 °F /  14.3 °C 29.9 in /  1013.8 hPa SSW 2.3 mph /  3.7 km/h 2.4 mph /  3.9 km/h 50 % 0 in /  0.0 mm
19:05 77.7 °F /  25.4 °C 57.6 °F /  14.2 °C 29.9 in /  1013.8 hPa SW 2.3 mph /  3.7 km/h 2.3 mph /  3.7 km/h 50 % 0 in /  0.0 mm
19:10 77 °F /  25.0 °C 57.9 °F /  14.4 °C 29.9 in /  1013.8 hPa NE 3.5 mph /  5.6 km/h   52 % 0 in /  0.0 mm
19:15 76.6 °F /  24.8 °C 58.3 °F /  14.6 °C 29.9 in /  1013.8 hPa ESE 2.3 mph /  3.7 km/h 2.3 mph /  3.7 km/h 53 % 0 in /  0.0 mm
19:20 75.9 °F /  24.4 °C 59.2 °F /  15.1 °C 29.9 in /  1013.8 hPa ENE 4 mph /  6.4 km/h 4 mph /  6.4 km/h 56 % 0 in /  0.0 mm
19:25 75.2 °F /  24.0 °C 59.4 °F /  15.2 °C 29.9 in /  1013.8 hPa East 4.6 mph /  7.4 km/h 4.6 mph /  7.4 km/h 58 % 0 in /  0.0 mm
19:30 74.8 °F /  23.8 °C 60.4 °F /  15.8 °C 29.9 in /  1013.8 hPa ENE 5.8 mph /  9.3 km/h 5.8 mph /  9.3 km/h 61 % 0 in /  0.0 mm
19:35 74.7 °F /  23.7 °C 60.3 °F /  15.7 °C 29.9 in /  1013.8 hPa ENE 8.1 mph /  13.0 km/h 8.1 mph /  13.0 km/h 61 % 0 in /  0.0 mm
19:40 74.5 °F /  23.6 °C 60.1 °F /  15.6 °C 29.9 in /  1013.8 hPa SE 3.5 mph /  5.6 km/h 3.5 mph /  5.6 km/h 61 % 0 in /  0.0 mm
19:45 74.8 °F /  23.8 °C 60.4 °F /  15.8 °C 29.9 in /  1013.8 hPa South 4.6 mph /  7.4 km/h 4.6 mph /  7.4 km/h 61 % 0 in /  0.0 mm
19:50 75 °F /  23.9 °C 59.2 °F /  15.1 °C 29.9 in /  1013.8 hPa SSW 5.8 mph /  9.3 km/h 5.8 mph /  9.3 km/h 58 % 0 in /  0.0 mm
19:55 75 °F /  23.9 °C 59.2 °F /  15.1 °C 29.9 in /  1013.8 hPa WSW 6.9 mph /  11.1 km/h 6.9 mph /  11.1 km/h 58 % 0 in /  0.0 mm
20:00 74.8 °F /  23.8 °C 58.6 °F /  14.8 °C 29.9 in /  1013.8 hPa SW 3.8 mph /  6.1 km/h 3.8 mph /  6.1 km/h 57 % 0 in /  0.0 mm
20:05 74.7 °F /  23.7 °C 58.5 °F /  14.7 °C 29.9 in /  1013.8 hPa SW 5.8 mph /  9.3 km/h 5.8 mph /  9.3 km/h 57 % 0 in /  0.0 mm
20:10 74.1 °F /  23.4 °C 57.9 °F /  14.4 °C 29.9 in /  1013.8 hPa WSW 4.6 mph /  7.4 km/h 4.6 mph /  7.4 km/h 57 % 0 in /  0.0 mm
20:15 73.8 °F /  23.2 °C 57 °F /  13.9 °C 29.9 in /  1013.8 hPa SW 5.8 mph /  9.3 km/h 5.8 mph /  9.3 km/h 56 % 0 in /  0.0 mm
20:20 73.8 °F /  23.2 °C 57 °F /  13.9 °C 29.9 in /  1013.8 hPa WSW 3.3 mph /  5.3 km/h 3.3 mph /  5.3 km/h 56 % 0 in /  0.0 mm
20:25 73.8 °F /  23.2 °C 57 °F /  13.9 °C 29.9 in /  1013.8 hPa SW 3.8 mph /  6.1 km/h 3.8 mph /  6.1 km/h 56 % 0 in /  0.0 mm
20:31 73.4 °F /  23.0 °C 57.2 °F /  14.0 °C 29.9 in /  1013.8 hPa WSW 3.5 mph /  5.6 km/h 3.5 mph /  5.6 km/h 57 % 0 in /  0.0 mm
20:36 73.4 °F /  23.0 °C 57.2 °F /  14.0 °C 29.9 in /  1013.8 hPa SW 3.6 mph /  5.8 km/h 3.6 mph /  5.8 km/h 57 % 0 in /  0.0 mm
20:41 73 °F /  22.8 °C 56.8 °F /  13.8 °C 30 in /  1014.8 hPa SW 3.5 mph /  5.6 km/h 3.5 mph /  5.6 km/h 57 % 0 in /  0.0 mm
20:46 72.9 °F /  22.7 °C 56.7 °F /  13.7 °C 30 in /  1014.8 hPa WSW 2.6 mph /  4.2 km/h   57 % 0 in /  0.0 mm
20:51 72.9 °F /  22.7 °C 56.7 °F /  13.7 °C 30 in /  1014.8 hPa SW 5.8 mph /  9.3 km/h 5.8 mph /  9.3 km/h 57 % 0 in /  0.0 mm
20:56 72.5 °F /  22.5 °C 56.5 °F /  13.6 °C 30 in /  1014.8 hPa SW 2.3 mph /  3.7 km/h 2.4 mph /  3.9 km/h 57 % 0 in /  0.0 mm
21:01 72.5 °F /  22.5 °C 56.5 °F /  13.6 °C 30 in /  1014.8 hPa WSW 3.5 mph /  5.6 km/h 3.5 mph /  5.6 km/h 57 % 0 in /  0.0 mm
21:06 72.3 °F /  22.4 °C 56.1 °F /  13.4 °C 30 in /  1014.8 hPa West 2.9 mph /  4.7 km/h 2.9 mph /  4.7 km/h 57 % 0 in /  0.0 mm
21:11 72.1 °F /  22.3 °C 56.1 °F /  13.4 °C 30 in /  1014.8 hPa SW 2.4 mph /  3.9 km/h 2.4 mph /  3.9 km/h 57 % 0 in /  0.0 mm
21:16 72 °F /  22.2 °C 55.9 °F /  13.3 °C 30 in /  1014.8 hPa SW 2.3 mph /  3.7 km/h 2.3 mph /  3.7 km/h 57 % 0 in /  0.0 mm
21:21 71.8 °F /  22.1 °C 55.8 °F /  13.2 °C 30 in /  1014.8 hPa WSW 3.5 mph /  5.6 km/h 3.5 mph /  5.6 km/h 57 % 0 in /  0.0 mm
21:26 71.6 °F /  22.0 °C 55.9 °F /  13.3 °C 30 in /  1014.8 hPa West 2.3 mph /  3.7 km/h 2.3 mph /  3.7 km/h 58 % 0 in /  0.0 mm
21:31 71.4 °F /  21.9 °C 56.3 °F /  13.5 °C 30 in /  1014.8 hPa SW 3.5 mph /  5.6 km/h 3.5 mph /  5.6 km/h 59 % 0 in /  0.0 mm
21:36 71.2 °F /  21.8 °C 56.1 °F /  13.4 °C 30 in /  1014.8 hPa WSW 2.3 mph /  3.7 km/h 2.3 mph /  3.7 km/h 59 % 0 in /  0.0 mm
21:41 71.1 °F /  21.7 °C 55.9 °F /  13.3 °C 30 in /  1015.8 hPa West 2.3 mph /  3.7 km/h 2.3 mph /  3.7 km/h 59 % 0 in /  0.0 mm
21:46 70.9 °F /  21.6 °C 55.8 °F /  13.2 °C 30 in /  1015.8 hPa West 3.5 mph /  5.6 km/h 3.5 mph /  5.6 km/h 59 % 0 in /  0.0 mm
21:51 70.7 °F /  21.5 °C 55.8 °F /  13.2 °C 30 in /  1015.8 hPa WSW 2.3 mph /  3.7 km/h 2.4 mph /  3.9 km/h 59 % 0 in /  0.0 mm
21:56 70.5 °F /  21.4 °C 55.9 °F /  13.3 °C 30 in /  1015.8 hPa SW 2.3 mph /  3.7 km/h 2.3 mph /  3.7 km/h 60 % 0 in /  0.0 mm
22:01 70.2 °F /  21.2 °C 55.6 °F /  13.1 °C 30 in /  1015.8 hPa SW 2.3 mph /  3.7 km/h 2.3 mph /  3.7 km/h 60 % 0 in /  0.0 mm
22:06 69.8 °F /  21.0 °C 55.2 °F /  12.9 °C 30 in /  1015.8 hPa SW 2.3 mph /  3.7 km/h 2.3 mph /  3.7 km/h 60 % 0 in /  0.0 mm
22:11 69.8 °F /  21.0 °C 55.8 °F /  13.2 °C 30 in /  1015.8 hPa WSW 2.3 mph /  3.7 km/h 2.3 mph /  3.7 km/h 61 % 0 in /  0.0 mm
22:16 69.6 °F /  20.9 °C 55.6 °F /  13.1 °C 30 in /  1015.8 hPa SW 3.5 mph /  5.6 km/h 3.5 mph /  5.6 km/h 61 % 0 in /  0.0 mm
22:21 69.4 °F /  20.8 °C 55.9 °F /  13.3 °C 30 in /  1015.8 hPa WSW 1.2 mph /  1.9 km/h 1.2 mph /  1.9 km/h 62 % 0 in /  0.0 mm
22:26 69.3 °F /  20.7 °C 55.8 °F /  13.2 °C 30 in /  1015.8 hPa WSW 1.4 mph /  2.3 km/h 1.6 mph /  2.6 km/h 62 % 0 in /  0.0 mm
22:31 69.3 °F /  20.7 °C 55.8 °F /  13.2 °C 30 in /  1015.8 hPa West 2 mph /  3.2 km/h 2 mph /  3.2 km/h 62 % 0 in /  0.0 mm
22:36 69.1 °F /  20.6 °C 55.6 °F /  13.1 °C 30 in /  1015.8 hPa SW 2.4 mph /  3.9 km/h 2.4 mph /  3.9 km/h 62 % 0 in /  0.0 mm
22:41 69.1 °F /  20.6 °C 55.6 °F /  13.1 °C 30 in /  1014.8 hPa SW 2.3 mph /  3.7 km/h 2.3 mph /  3.7 km/h 62 % 0 in /  0.0 mm
22:46 68.9 °F /  20.5 °C 55.2 °F /  12.9 °C 30 in /  1014.8 hPa WSW 2.3 mph /  3.7 km/h 2.3 mph /  3.7 km/h 62 % 0 in /  0.0 mm
22:51 68.7 °F /  20.4 °C 55.6 °F /  13.1 °C 30 in /  1014.8 hPa Calm     63 % 0 in /  0.0 mm
22:56 68.5 °F /  20.3 °C 55.4 °F /  13.0 °C 30 in /  1015.8 hPa Calm     63 % 0 in /  0.0 mm
23:01 68.4 °F /  20.2 °C 55.2 °F /  12.9 °C 30 in /  1015.8 hPa Calm     63 % 0 in /  0.0 mm
23:06 68.4 °F /  20.2 °C 55.2 °F /  12.9 °C 30 in /  1015.8 hPa WSW 1.2 mph /  1.9 km/h   63 % 0 in /  0.0 mm
23:11 68.2 °F /  20.1 °C 55 °F /  12.8 °C 30 in /  1014.8 hPa Calm     63 % 0 in /  0.0 mm
23:16 68.2 °F /  20.1 °C 55 °F /  12.8 °C 30 in /  1014.8 hPa Calm     63 % 0 in /  0.0 mm
23:21 68 °F /  20.0 °C 54.9 °F /  12.7 °C 30 in /  1014.8 hPa Calm     63 % 0 in /  0.0 mm
23:26 68 °F /  20.0 °C 54.9 °F /  12.7 °C 30 in /  1015.8 hPa WSW 1.2 mph /  1.9 km/h   63 % 0 in /  0.0 mm
23:31 68 °F /  20.0 °C 54.9 °F /  12.7 °C 30 in /  1015.8 hPa WSW 1.2 mph /  1.9 km/h 1.2 mph /  1.9 km/h 63 % 0 in /  0.0 mm
23:36 68 °F /  20.0 °C 54.9 °F /  12.7 °C 30 in /  1015.8 hPa WSW 2.4 mph /  3.9 km/h 2.4 mph /  3.9 km/h 63 % 0 in /  0.0 mm
23:41 68 °F /  20.0 °C 55.4 °F /  13.0 °C 30 in /  1015.8 hPa WSW 1.2 mph /  1.9 km/h   64 % 0 in /  0.0 mm
23:46 68 °F /  20.0 °C 55.4 °F /  13.0 °C 30 in /  1015.8 hPa WSW 1.2 mph /  1.9 km/h   64 % 0 in /  0.0 mm
23:51 68 °F /  20.0 °C 55.4 °F /  13.0 °C 30 in /  1015.8 hPa WSW 1.2 mph /  1.9 km/h 1.2 mph /  1.9 km/h 64 % 0 in /  0.0 mm
23:56 67.8 °F /  19.9 °C 55.6 °F /  13.1 °C 30 in /  1014.8 hPa WSW 1.2 mph /  1.9 km/h 1.4 mph /  2.3 km/h 65 % 0 in /  0.0 mm
Meteo Sesrovires
Elogis d' Weather Underground - 3.5 mb

Guio original per  Jim McMurry - jmcmurry@mwt.net Adaptat per a la plantilla per  Wim van der Kuil - Leuven-Template.eu

Trobareu la nostra informacio del temps tambe a:

Weather Underground

AWEKAS